Time;durP1;ratioP1;P1;durP2;ratioP2;P2;SDS_P1;SDS_P2;PMS_P1;PMS_P2;Temp;Humidity;BMP_temperature;BMP_pressure;BME280_temperature;BME280_humidity;BME280_pressure;Samples;Min_cycle;Max_cycle;Signal;HPM_P1;HPM_P2
2023/07/19 00:02:09;;;;;;;5.07;3.05;;;17.70;99.90;;;;;;4971370;28;20019;-77
2023/07/19 00:04:35;;;;;;;4.90;2.92;;;17.70;99.90;;;;;;4953599;28;20066;-78
2023/07/19 00:07:00;;;;;;;3.05;2.28;;;17.80;99.90;;;;;;4971091;28;20027;-78
2023/07/19 00:09:26;;;;;;;6.15;3.40;;;17.70;99.90;;;;;;4970961;28;20114;-78
2023/07/19 00:11:51;;;;;;;5.50;3.00;;;17.70;99.90;;;;;;4970940;28;20027;-78
2023/07/19 00:14:17;;;;;;;5.10;3.00;;;17.70;99.90;;;;;;4971088;28;20065;-78
2023/07/19 00:16:43;;;;;;;3.42;2.40;;;17.70;99.90;;;;;;4971151;28;20038;-77
2023/07/19 00:19:08;;;;;;;5.53;2.45;;;17.70;99.90;;;;;;4953298;28;20031;-77
2023/07/19 00:21:34;;;;;;;3.45;3.00;;;17.60;99.90;;;;;;4953394;28;20051;-77
2023/07/19 00:24:00;;;;;;;5.93;2.45;;;17.60;99.90;;;;;;4971377;28;20026;-78
2023/07/19 00:26:26;;;;;;;4.35;2.80;;;17.50;99.90;;;;;;4970662;28;20411;-77
2023/07/19 00:28:51;;;;;;;4.25;3.45;;;17.40;99.90;;;;;;4970438;28;20088;-78
2023/07/19 00:31:17;;;;;;;4.53;2.65;;;17.50;99.90;;;;;;4970951;28;20027;-78
2023/07/19 00:33:42;;;;;;;2.95;2.33;;;17.50;99.90;;;;;;4953369;28;20423;-77
2023/07/19 00:36:08;;;;;;;3.65;2.72;;;17.50;99.90;;;;;;4970544;28;20041;-78
2023/07/19 00:38:34;;;;;;;5.18;2.88;;;17.40;99.90;;;;;;4953356;28;20027;-78
2023/07/19 00:40:59;;;;;;;3.75;3.20;;;17.40;99.90;;;;;;4970852;28;20023;-77
2023/07/19 00:43:25;;;;;;;3.33;2.50;;;17.30;99.90;;;;;;4953049;28;20030;-78
2023/07/19 00:45:53;;;;;;;3.45;2.13;;;17.30;99.90;;;;;;4970190;28;20026;-78
2023/07/19 00:48:20;;;;;;;3.13;2.53;;;17.20;99.90;;;;;;4970293;28;20420;-77
2023/07/19 00:50:48;;;;;;;4.00;3.13;;;17.20;99.90;;;;;;4952728;28;20290;-78
2023/07/19 00:53:14;;;;;;;2.80;2.45;;;17.20;99.90;;;;;;4970610;28;20477;-77
2023/07/19 00:55:41;;;;;;;7.20;3.13;;;17.10;99.90;;;;;;4953090;28;20126;-77
2023/07/19 00:58:07;;;;;;;2.60;2.35;;;17.20;99.90;;;;;;4952682;28;20058;-78
2023/07/19 01:00:33;;;;;;;2.67;2.47;;;17.20;99.90;;;;;;4952945;28;20126;-78
2023/07/19 01:02:59;;;;;;;6.05;3.38;;;17.30;99.90;;;;;;4952768;28;20123;-78
2023/07/19 01:05:26;;;;;;;4.03;2.67;;;17.20;99.90;;;;;;4969194;28;20513;-78
2023/07/19 01:07:53;;;;;;;7.78;3.30;;;17.30;99.90;;;;;;4952693;28;20458;-77
2023/07/19 01:10:19;;;;;;;9.25;2.35;;;17.20;99.90;;;;;;4970220;28;20031;-78
2023/07/19 01:13:02;;;;;;;5.57;2.97;;;17.20;99.90;;;;;;4970299;28;20098;-78
2023/07/19 01:15:28;;;;;;;3.75;2.72;;;17.00;99.90;;;;;;4970480;28;20031;-78
2023/07/19 01:17:53;;;;;;;8.40;2.83;;;17.10;99.90;;;;;;4952952;28;20037;-78
2023/07/19 01:20:19;;;;;;;3.40;2.95;;;17.00;99.90;;;;;;4952700;28;20023;-77
2023/07/19 01:22:46;;;;;;;5.07;2.70;;;17.00;99.90;;;;;;4970028;28;20566;-78
2023/07/19 01:25:12;;;;;;;5.22;2.85;;;16.90;99.90;;;;;;4969960;28;20026;-77
2023/07/19 01:27:38;;;;;;;11.30;4.05;;;16.90;99.90;;;;;;4952723;28;20262;-78
2023/07/19 01:30:04;;;;;;;3.30;2.53;;;16.90;99.90;;;;;;4952756;28;20042;-78
2023/07/19 01:32:30;;;;;;;4.15;3.13;;;16.90;99.90;;;;;;4970089;28;20069;-77
2023/07/19 01:34:56;;;;;;;3.17;2.50;;;16.80;99.90;;;;;;4969855;28;20126;-78
2023/07/19 01:37:21;;;;;;;4.57;3.05;;;16.80;99.90;;;;;;4952705;28;20023;-78
2023/07/19 01:39:49;;;;;;;3.42;2.83;;;16.90;99.90;;;;;;4952340;28;20459;-77
2023/07/19 01:42:14;;;;;;;5.55;2.92;;;17.00;99.90;;;;;;4952490;28;20023;-78
2023/07/19 01:44:40;;;;;;;7.78;2.42;;;17.00;99.90;;;;;;4952477;28;20503;-78
2023/07/19 01:47:06;;;;;;;3.13;2.53;;;17.00;99.90;;;;;;4952542;28;20031;-77
2023/07/19 01:49:31;;;;;;;3.47;2.50;;;17.00;99.90;;;;;;4952359;28;20113;-77
2023/07/19 01:51:57;;;;;;;3.63;3.33;;;17.00;99.90;;;;;;4952575;28;20211;-78
2023/07/19 01:54:23;;;;;;;5.80;2.85;;;17.00;99.90;;;;;;4970323;28;20436;-79
2023/07/19 01:56:48;;;;;;;6.28;4.22;;;17.00;99.90;;;;;;4969949;28;20582;-78
2023/07/19 01:59:14;;;;;;;8.98;3.22;;;17.00;99.90;;;;;;4969760;28;20019;-78
2023/07/19 02:01:39;;;;;;;3.22;2.08;;;17.10;99.90;;;;;;4969798;28;20058;-78
2023/07/19 02:04:05;;;;;;;4.65;2.42;;;17.20;99.90;;;;;;4952195;28;20483;-78
2023/07/19 02:06:31;;;;;;;3.67;2.92;;;17.30;99.90;;;;;;4969906;28;20113;-77
2023/07/19 02:08:56;;;;;;;4.38;3.03;;;17.40;99.90;;;;;;4970052;28;20081;-78
2023/07/19 02:11:22;;;;;;;23.55;3.00;;;17.40;99.90;;;;;;4952699;28;20054;-78
2023/07/19 02:13:48;;;;;;;8.77;2.65;;;17.40;99.90;;;;;;4969680;28;20073;-78
2023/07/19 02:16:15;;;;;;;4.47;3.22;;;17.40;99.90;;;;;;4969720;28;20528;-78
2023/07/19 02:18:40;;;;;;;5.35;3.20;;;17.30;99.90;;;;;;4971986;28;20027;-77
2023/07/19 02:21:06;;;;;;;2.60;2.10;;;17.30;99.90;;;;;;4955356;28;20051;-78
2023/07/19 02:23:33;;;;;;;6.25;3.75;;;17.40;99.90;;;;;;4955600;28;20041;-77
2023/07/19 02:25:59;;;;;;;8.10;3.08;;;17.40;99.90;;;;;;4955619;28;20027;-78
2023/07/19 02:28:25;;;;;;;3.45;2.45;;;17.50;99.90;;;;;;4973228;28;20049;-78
2023/07/19 02:30:50;;;;;;;6.95;3.05;;;17.50;99.90;;;;;;4972764;28;20623;-78
2023/07/19 02:33:16;;;;;;;3.08;2.65;;;17.80;99.90;;;;;;4973240;28;20019;-78
2023/07/19 02:35:42;;;;;;;11.13;2.97;;;17.40;99.90;;;;;;4954962;28;20554;-77
2023/07/19 02:38:09;;;;;;;9.43;3.67;;;17.50;99.90;;;;;;4955087;28;20057;-77
2023/07/19 02:40:34;;;;;;;5.47;2.88;;;17.50;99.90;;;;;;4955426;28;20062;-78
2023/07/19 02:43:00;;;;;;;4.18;2.55;;;17.60;99.90;;;;;;4972630;28;20050;-77
2023/07/19 02:45:26;;;;;;;3.67;3.00;;;17.60;99.90;;;;;;4972602;28;20442;-77
2023/07/19 02:47:52;;;;;;;3.55;2.70;;;17.50;99.90;;;;;;4972705;28;20138;-77
2023/07/19 02:50:21;;;;;;;5.78;3.47;;;17.50;99.90;;;;;;4972346;28;20106;-78
2023/07/19 02:52:47;;;;;;;3.55;2.88;;;17.50;99.90;;;;;;4972009;28;20118;-78
2023/07/19 02:55:13;;;;;;;5.50;2.75;;;17.70;99.90;;;;;;4972471;28;20107;-77
2023/07/19 02:57:39;;;;;;;5.45;2.97;;;17.80;99.90;;;;;;4972349;28;20147;-78
2023/07/19 03:00:06;;;;;;;5.68;3.20;;;17.90;99.90;;;;;;4972476;28;20097;-77
2023/07/19 03:02:32;;;;;;;2.92;2.30;;;18.10;99.90;;;;;;4954886;28;20022;-77
2023/07/19 03:04:58;;;;;;;4.45;3.28;;;18.20;99.90;;;;;;4972250;28;20094;-77
2023/07/19 03:07:24;;;;;;;4.75;3.30;;;18.40;99.90;;;;;;4954582;28;20556;-78
2023/07/19 03:09:50;;;;;;;6.45;3.17;;;18.50;99.90;;;;;;4971867;28;20042;-78
2023/07/19 03:12:16;;;;;;;7.95;4.03;;;18.70;99.90;;;;;;4954628;28;20027;-77
2023/07/19 03:14:42;;;;;;;6.38;3.72;;;18.90;99.90;;;;;;4954443;28;20044;-77
2023/07/19 03:17:08;;;;;;;11.50;3.05;;;19.10;99.90;;;;;;4954579;28;20015;-77
2023/07/19 03:19:35;;;;;;;4.97;3.42;;;19.20;99.90;;;;;;4954604;28;20033;-77
2023/07/19 03:22:01;;;;;;;8.65;4.22;;;19.40;99.90;;;;;;4953964;28;20094;-77
2023/07/19 03:24:27;;;;;;;4.43;3.10;;;19.40;99.90;;;;;;4954254;28;20230;-77
2023/07/19 03:26:53;;;;;;;4.93;3.65;;;19.40;99.90;;;;;;4954562;28;20197;-78
2023/07/19 03:29:19;;;;;;;8.25;3.70;;;19.30;99.90;;;;;;4971126;28;20035;-77
2023/07/19 03:31:45;;;;;;;7.25;3.25;;;19.30;99.90;;;;;;4954381;28;20403;-78
2023/07/19 03:34:11;;;;;;;4.28;3.25;;;19.30;99.90;;;;;;4971715;28;20038;-78
2023/07/19 03:36:36;;;;;;;7.20;3.30;;;19.30;99.90;;;;;;4953955;28;20027;-77
2023/07/19 03:39:03;;;;;;;3.03;2.72;;;19.20;99.90;;;;;;4971594;28;20090;-77
2023/07/19 03:41:29;;;;;;;4.75;2.95;;;19.20;99.90;;;;;;4954310;28;20425;-78
2023/07/19 03:43:55;;;;;;;6.70;3.17;;;19.10;99.90;;;;;;4954198;28;20089;-77
2023/07/19 03:46:20;;;;;;;4.03;2.70;;;19.00;99.90;;;;;;4971458;28;20480;-77
2023/07/19 03:48:46;;;;;;;3.47;2.40;;;19.00;99.90;;;;;;4953756;28;20030;-77
2023/07/19 03:51:12;;;;;;;7.80;3.63;;;18.90;99.90;;;;;;4953705;28;20057;-77
2023/07/19 03:53:37;;;;;;;4.15;2.83;;;19.00;99.90;;;;;;4954185;28;20488;-77
2023/07/19 03:56:03;;;;;;;5.57;3.45;;;18.90;99.90;;;;;;4953830;28;20030;-77
2023/07/19 03:58:29;;;;;;;4.22;3.00;;;18.90;99.90;;;;;;4954138;28;20651;-77
2023/07/19 04:00:57;;;;;;;6.78;3.10;;;19.00;99.90;;;;;;4971200;28;20489;-78
2023/07/19 04:03:23;;;;;;;7.50;3.50;;;19.00;99.90;;;;;;4953544;28;20077;-78
2023/07/19 04:05:54;;;;;;;3.10;2.88;;;19.10;99.90;;;;;;4953385;28;20022;-77
2023/07/19 04:08:20;;;;;;;10.43;3.28;;;19.00;99.90;;;;;;4953467;28;20022;-77
2023/07/19 04:10:45;;;;;;;7.05;3.17;;;19.00;99.90;;;;;;4953539;28;20035;-77
2023/07/19 04:13:11;;;;;;;7.28;3.92;;;19.10;99.90;;;;;;4971023;28;20019;-77
2023/07/19 04:15:37;;;;;;;5.10;3.83;;;19.10;99.90;;;;;;4970969;28;20550;-77
2023/07/19 04:18:04;;;;;;;6.07;4.22;;;19.20;99.90;;;;;;4953437;28;20518;-77
2023/07/19 04:20:30;;;;;;;8.00;3.63;;;19.20;99.90;;;;;;4953237;28;20084;-77
2023/07/19 04:22:56;;;;;;;4.25;3.80;;;19.20;99.90;;;;;;4953393;28;20043;-77
2023/07/19 04:25:24;;;;;;;4.85;3.60;;;19.20;99.90;;;;;;4970850;28;20050;-78
2023/07/19 04:27:50;;;;;;;6.72;4.30;;;19.20;99.90;;;;;;4953181;28;20030;-77
2023/07/19 04:30:16;;;;;;;5.60;3.00;;;19.20;99.90;;;;;;4953188;28;20042;-77
2023/07/19 04:32:41;;;;;;;7.10;3.45;;;19.30;99.90;;;;;;4970911;28;20027;-77
2023/07/19 04:35:07;;;;;;;4.68;3.30;;;19.40;99.90;;;;;;4953122;28;20030;-78
2023/07/19 04:37:33;;;;;;;7.40;4.10;;;19.50;99.90;;;;;;4952938;28;20377;-78
2023/07/19 04:39:59;;;;;;;5.68;3.67;;;19.50;99.90;;;;;;4969918;28;20218;-78
2023/07/19 04:42:24;;;;;;;7.07;3.63;;;19.70;99.90;;;;;;4970521;28;20044;-77
2023/07/19 04:44:50;;;;;;;7.68;4.03;;;19.90;99.90;;;;;;4970328;28;20035;-77
2023/07/19 04:47:16;;;;;;;5.15;3.10;;;20.10;99.90;;;;;;4970577;28;20439;-78
2023/07/19 04:49:42;;;;;;;11.35;3.03;;;20.30;99.90;;;;;;4953196;28;20039;-79
2023/07/19 04:52:08;;;;;;;6.78;3.70;;;20.40;99.90;;;;;;4953005;28;20404;-77
2023/07/19 04:54:34;;;;;;;6.70;3.03;;;20.70;99.90;;;;;;4970626;28;20039;-78
2023/07/19 04:57:00;;;;;;;8.52;3.38;;;20.90;99.90;;;;;;4953502;28;20033;-78
2023/07/19 04:59:26;;;;;;;3.75;3.08;;;21.10;99.90;;;;;;4970227;28;20030;-77
2023/07/19 05:01:52;;;;;;;7.90;3.40;;;21.30;99.90;;;;;;4952912;28;20578;-78
2023/07/19 05:04:18;;;;;;;4.07;3.13;;;21.30;99.90;;;;;;4970373;28;20085;-78
2023/07/19 05:06:44;;;;;;;9.63;4.30;;;21.40;99.90;;;;;;4952499;28;20063;-78
2023/07/19 05:09:10;;;;;;;6.90;3.42;;;21.50;99.90;;;;;;4970227;28;20399;-77
2023/07/19 05:11:36;;;;;;;4.50;3.15;;;21.60;99.90;;;;;;4970529;28;20023;-78
2023/07/19 05:14:02;;;;;;;6.35;3.42;;;21.70;99.90;;;;;;4952693;28;20062;-77
2023/07/19 05:16:28;;;;;;;5.82;4.03;;;21.70;99.90;;;;;;4970413;28;20570;-77
2023/07/19 05:18:53;;;;;;;5.28;3.58;;;21.80;99.90;;;;;;4970014;28;20499;-77
2023/07/19 05:21:19;;;;;;;5.05;3.08;;;21.70;99.90;;;;;;4969478;28;20051;-77
2023/07/19 05:23:45;;;;;;;5.90;3.47;;;21.70;99.90;;;;;;4952871;28;20499;-78
2023/07/19 05:26:11;;;;;;;9.05;2.60;;;21.60;99.90;;;;;;4970313;28;20042;-78
2023/07/19 05:28:37;;;;;;;6.32;3.70;;;21.60;99.90;;;;;;4952817;28;20023;-77
2023/07/19 05:31:08;;;;;;;6.07;3.55;;;21.50;99.90;;;;;;4970338;28;20054;-78
2023/07/19 05:33:35;;;;;;;5.85;3.00;;;21.40;99.90;;;;;;4970100;28;20026;-78
2023/07/19 05:36:01;;;;;;;4.15;2.97;;;21.40;99.90;;;;;;4969665;28;20453;-77
2023/07/19 05:38:27;;;;;;;9.95;4.13;;;21.40;99.90;;;;;;4969733;28;20542;-77
2023/07/19 05:41:04;;;;;;;7.75;4.13;;;21.50;99.90;;;;;;4952459;28;20126;-77
2023/07/19 05:43:31;;;;;;;4.65;3.40;;;21.50;99.90;;;;;;4952782;28;20439;-77
2023/07/19 05:46:07;;;;;;;7.10;3.63;;;21.50;99.90;;;;;;4952734;28;20038;-77
2023/07/19 05:48:33;;;;;;;4.20;3.40;;;21.60;99.90;;;;;;4952633;28;20023;-77
2023/07/19 05:51:00;;;;;;;5.13;3.70;;;21.60;99.90;;;;;;4952570;28;20035;-77
2023/07/19 05:53:26;;;;;;;6.60;3.00;;;21.70;99.90;;;;;;4973402;28;20027;-77
2023/07/19 05:55:52;;;;;;;9.38;3.17;;;21.80;99.90;;;;;;4956091;28;20034;-77
2023/07/19 05:58:19;;;;;;;7.72;3.05;;;21.90;99.90;;;;;;4956225;28;20030;-78
2023/07/19 06:00:45;;;;;;;4.07;3.67;;;22.00;99.90;;;;;;4956138;28;20049;-77
2023/07/19 06:03:10;;;;;;;8.38;3.08;;;22.10;99.90;;;;;;4956016;28;20503;-77
2023/07/19 06:05:36;;;;;;;4.72;2.78;;;22.30;99.90;;;;;;4973051;28;20038;-78
2023/07/19 06:08:02;;;;;;;5.03;2.97;;;22.40;99.90;;;;;;4955884;28;20022;-77
2023/07/19 06:10:27;;;;;;;7.22;3.55;;;22.50;99.90;;;;;;4973399;28;20035;-78
2023/07/19 06:12:53;;;;;;;6.32;3.75;;;22.60;99.90;;;;;;4955895;28;20023;-78
2023/07/19 06:15:20;;;;;;;6.38;3.03;;;22.70;99.90;;;;;;4973169;28;20026;-78
2023/07/19 06:17:46;;;;;;;3.45;2.75;;;23.30;99.90;;;;;;4956085;28;20031;-77
2023/07/19 06:20:13;;;;;;;5.22;2.90;;;24.10;99.90;;;;;;4955762;28;20043;-77
2023/07/19 06:22:39;;;;;;;3.25;2.63;;;24.50;99.90;;;;;;4955223;28;20050;-78
2023/07/19 06:25:05;;;;;;;9.68;3.78;;;24.40;99.90;;;;;;4973306;28;20034;-78
2023/07/19 06:27:31;;;;;;;5.40;3.42;;;24.10;99.90;;;;;;4955588;28;20033;-78
2023/07/19 06:29:57;;;;;;;5.93;3.10;;;23.80;99.90;;;;;;4955245;28;20133;-78
2023/07/19 06:32:23;;;;;;;11.98;3.53;;;23.80;99.90;;;;;;4955569;28;20381;-77
2023/07/19 06:34:49;;;;;;;10.15;3.50;;;23.70;99.90;;;;;;4972631;28;20117;-78
2023/07/19 06:37:14;;;;;;;8.63;2.97;;;23.60;99.90;;;;;;4954975;28;20029;-78
2023/07/19 06:39:40;;;;;;;3.28;2.60;;;23.60;99.90;;;;;;4972693;28;20376;-78
2023/07/19 06:42:06;;;;;;;4.40;3.00;;;23.80;99.90;;;;;;4973054;28;20477;-78
2023/07/19 06:44:31;;;;;;;3.28;2.97;;;23.80;99.90;;;;;;4972921;28;20039;-78
2023/07/19 06:46:59;;;;;;;3.78;3.00;;;23.90;99.90;;;;;;4972878;28;20027;-78
2023/07/19 06:49:25;;;;;;;3.33;2.70;;;24.10;99.90;;;;;;4955236;28;20066;-78
2023/07/19 06:51:51;;;;;;;5.47;3.40;;;24.80;99.90;;;;;;4972160;28;20184;-78
2023/07/19 06:54:17;;;;;;;7.32;2.50;;;25.20;99.90;;;;;;4972695;28;20111;-77
2023/07/19 06:56:42;;;;;;;3.65;3.22;;;25.60;99.90;;;;;;4972659;28;20023;-78
2023/07/19 06:59:08;;;;;;;3.15;2.13;;;26.40;99.90;;;;;;4955033;28;20081;-78
2023/07/19 07:01:34;;;;;;;4.15;3.33;;;27.20;99.90;;;;;;4955281;28;20101;-78
2023/07/19 07:03:59;;;;;;;7.43;3.28;;;27.50;99.90;;;;;;4954255;28;20054;-77
2023/07/19 07:06:25;;;;;;;4.93;3.05;;;28.00;99.90;;;;;;4954428;28;20199;-78
2023/07/19 07:08:51;;;;;;;4.28;2.92;;;28.80;98.40;;;;;;4954785;28;20467;-78
2023/07/19 07:11:16;;;;;;;5.93;3.30;;;29.10;95.10;;;;;;4954885;28;20419;-78
2023/07/19 07:13:42;;;;;;;3.30;2.72;;;29.20;93.90;;;;;;4972377;28;20435;-78
2023/07/19 07:16:08;;;;;;;6.13;2.97;;;29.40;92.40;;;;;;4972479;28;20063;-78
2023/07/19 07:18:33;;;;;;;3.97;2.60;;;29.00;92.10;;;;;;4972108;28;20114;-78
2023/07/19 07:20:59;;;;;;;3.83;2.40;;;28.70;89.70;;;;;;4954058;28;20395;-78
2023/07/19 07:23:25;;;;;;;3.85;2.90;;;29.20;88.00;;;;;;4972145;28;20495;-78
2023/07/19 07:25:54;;;;;;;9.38;2.28;;;29.50;82.60;;;;;;4954475;28;20547;-78
2023/07/19 07:28:20;;;;;;;3.28;2.97;;;28.80;84.50;;;;;;4971884;28;20027;-77
2023/07/19 07:30:45;;;;;;;7.30;3.00;;;28.80;83.30;;;;;;4954427;28;20105;-78
2023/07/19 07:33:11;;;;;;;3.25;2.17;;;28.90;83.30;;;;;;4954500;28;20034;-78
2023/07/19 07:35:37;;;;;;;4.22;2.50;;;29.10;82.70;;;;;;4971525;28;20162;-77
2023/07/19 07:38:03;;;;;;;5.50;3.05;;;28.80;81.40;;;;;;4954240;28;20050;-78
2023/07/19 07:40:28;;;;;;;4.32;1.95;;;29.00;79.50;;;;;;4954130;28;20499;-78
2023/07/19 07:42:54;;;;;;;6.60;2.78;;;29.20;78.30;;;;;;4954067;28;20022;-78
2023/07/19 07:45:20;;;;;;;4.63;2.22;;;29.20;76.40;;;;;;4954194;28;20526;-78
2023/07/19 07:47:45;;;;;;;3.72;2.10;;;28.80;78.10;;;;;;4971466;28;20106;-78
2023/07/19 07:50:11;;;;;;;2.22;2.03;;;29.20;76.10;;;;;;4971685;28;20039;-78
2023/07/19 07:52:37;;;;;;;2.63;2.40;;;29.30;77.20;;;;;;4971274;28;20288;-78
2023/07/19 07:55:06;;;;;;;6.03;2.00;;;29.70;76.80;;;;;;4953660;28;20482;-78
2023/07/19 07:57:37;;;;;;;5.63;2.60;;;29.30;77.60;;;;;;4971455;28;20062;-78
2023/07/19 08:00:11;;;;;;;5.35;2.85;;;29.50;78.00;;;;;;4971310;28;20031;-78
2023/07/19 08:02:37;;;;;;;3.85;2.45;;;29.60;77.80;;;;;;4971289;28;20436;-78
2023/07/19 08:05:06;;;;;;;5.28;3.00;;;29.90;75.70;;;;;;4971225;28;20098;-78
2023/07/19 08:07:32;;;;;;;4.43;2.65;;;29.30;77.50;;;;;;4953501;28;20077;-78
2023/07/19 08:09:57;;;;;;;6.15;3.08;;;28.80;75.80;;;;;;4971087;28;20058;-78
2023/07/19 08:12:24;;;;;;;4.03;2.45;;;28.30;77.80;;;;;;4971305;28;20027;-78
2023/07/19 08:14:50;;;;;;;3.83;2.50;;;28.20;77.10;;;;;;4953488;28;20026;-78
2023/07/19 08:17:16;;;;;;;6.32;2.72;;;27.70;79.40;;;;;;4953474;28;20019;-78
2023/07/19 08:19:41;;;;;;;2.92;2.45;;;28.10;77.80;;;;;;4953552;28;20030;-78
2023/07/19 08:22:22;;;;;;;3.47;2.70;;;28.70;74.90;;;;;;4970510;28;20051;-77
2023/07/19 08:24:48;;;;;;;3.38;2.42;;;29.20;77.10;;;;;;4953409;28;20050;-78
2023/07/19 08:27:13;;;;;;;7.60;2.17;;;29.50;73.40;;;;;;4953468;28;20451;-78
2023/07/19 08:29:39;;;;;;;4.15;2.55;;;28.90;73.90;;;;;;4970760;28;20068;-78
2023/07/19 08:32:05;;;;;;;8.15;2.83;;;28.60;75.00;;;;;;4970764;28;20576;-78
2023/07/19 08:34:30;;;;;;;3.17;2.15;;;28.70;76.20;;;;;;4970910;28;20035;-78
2023/07/19 08:36:56;;;;;;;5.22;2.30;;;29.00;73.30;;;;;;4970503;28;20027;-78
2023/07/19 08:39:23;;;;;;;3.65;2.08;;;29.80;72.00;;;;;;4970680;28;20038;-78
2023/07/19 08:41:49;;;;;;;3.83;2.20;;;29.60;70.20;;;;;;4953028;28;20069;-78
2023/07/19 08:44:15;;;;;;;4.22;2.15;;;28.70;71.40;;;;;;4971128;28;20186;-78
2023/07/19 08:46:45;;;;;;;2.30;1.65;;;28.10;70.40;;;;;;4970698;28;20034;-78
2023/07/19 08:49:11;;;;;;;4.68;1.90;;;27.70;70.80;;;;;;4953307;28;20141;-78
2023/07/19 08:51:39;;;;;;;3.53;1.85;;;28.20;71.60;;;;;;4953148;28;20019;-78
2023/07/19 08:54:04;;;;;;;2.72;1.98;;;28.20;67.40;;;;;;4953181;28;20096;-79
2023/07/19 08:56:33;;;;;;;1.73;1.55;;;28.10;68.00;;;;;;4970530;28;20539;-78
2023/07/19 08:58:59;;;;;;;4.05;1.60;;;27.90;67.00;;;;;;4953039;28;20027;-78
2023/07/19 09:01:25;;;;;;;5.82;1.77;;;28.20;67.20;;;;;;4952730;28;20030;-78
2023/07/19 09:03:50;;;;;;;6.47;1.55;;;27.80;67.00;;;;;;4970505;28;20109;-78
2023/07/19 09:06:28;;;;;;;1.50;1.38;;;28.20;66.00;;;;;;4952640;28;20035;-78
2023/07/19 09:08:55;;;;;;;6.38;1.40;;;28.30;64.40;;;;;;4952878;28;20491;-78
2023/07/19 09:11:22;;;;;;;4.40;1.80;;;28.80;65.90;;;;;;4970265;28;20039;-78
2023/07/19 09:13:56;;;;;;;4.60;1.80;;;28.30;66.70;;;;;;4952747;28;20151;-78
2023/07/19 09:16:32;;;;;;;2.42;1.40;;;28.30;66.20;;;;;;4970343;28;20057;-78
2023/07/19 09:18:59;;;;;;;1.67;1.58;;;28.30;67.40;;;;;;4970439;28;20031;-78
2023/07/19 09:21:38;;;;;;;4.07;1.65;;;28.10;65.90;;;;;;4952299;28;20050;-77
2023/07/19 09:24:05;;;;;;;5.68;2.20;;;27.60;69.70;;;;;;4952883;28;20030;-78
2023/07/19 09:26:55;;;;;;;3.17;1.75;;;27.80;70.00;;;;;;4953936;28;20109;-78
2023/07/19 09:29:22;;;;;;;5.13;1.83;;;27.90;67.50;;;;;;4974024;28;20117;-78
2023/07/19 09:31:55;;;;;;;3.25;1.80;;;27.40;67.50;;;;;;4956516;28;20031;-78
2023/07/19 09:34:35;;;;;;;6.68;1.67;;;27.50;68.10;;;;;;4956560;28;20428;-78
2023/07/19 09:37:02;;;;;;;4.55;1.75;;;27.50;68.80;;;;;;4956038;28;20023;-78
2023/07/19 09:39:29;;;;;;;5.13;2.10;;;28.00;66.50;;;;;;4956443;28;20393;-78
2023/07/19 09:41:57;;;;;;;2.58;2.22;;;27.90;67.00;;;;;;4956635;28;20023;-78
2023/07/19 09:44:23;;;;;;;4.65;1.90;;;28.30;67.00;;;;;;4973994;28;20089;-78
2023/07/19 09:46:49;;;;;;;5.13;2.20;;;28.20;66.50;;;;;;4956414;28;20031;-78
2023/07/19 09:49:15;;;;;;;3.90;2.20;;;28.20;66.90;;;;;;4956083;28;20420;-78
2023/07/19 09:51:42;;;;;;;7.47;2.00;;;27.50;67.70;;;;;;4955851;28;20031;-77
2023/07/19 09:54:12;;;;;;;3.88;1.98;;;27.80;68.10;;;;;;4973683;28;20027;-78
2023/07/19 09:56:40;;;;;;;3.22;2.28;;;27.80;69.60;;;;;;4973836;28;20422;-77
2023/07/19 09:59:22;;;;;;;1.92;1.70;;;28.20;67.90;;;;;;4973716;28;20490;-78
2023/07/19 10:01:48;;;;;;;6.97;2.38;;;27.90;67.40;;;;;;4973688;28;20031;-78
2023/07/19 10:04:28;;;;;;;2.67;2.25;;;27.90;69.10;;;;;;4956281;28;20030;-77
2023/07/19 10:07:09;;;;;;;7.10;1.95;;;27.80;68.80;;;;;;4972996;28;20030;-78
2023/07/19 10:09:43;;;;;;;2.88;2.10;;;27.50;68.80;;;;;;4955831;28;20027;-77
2023/07/19 10:12:17;;;;;;;2.45;2.25;;;27.70;68.10;;;;;;4973496;28;20029;-78
2023/07/19 10:14:53;;;;;;;7.88;2.88;;;28.10;69.20;;;;;;4955792;28;20023;-78
2023/07/19 10:17:18;;;;;;;3.15;1.33;;;28.50;68.90;;;;;;4955910;28;20077;-78
2023/07/19 10:20:02;;;;;;;5.43;3.05;;;28.40;68.20;;;;;;4955431;28;20419;-78
2023/07/19 10:22:47;;;;;;;3.83;2.55;;;28.50;69.90;;;;;;4973273;28;20130;-78
2023/07/19 10:25:37;;;;;;;3.45;2.05;;;28.20;66.50;;;;;;4955723;28;20030;-77
2023/07/19 10:28:10;;;;;;;5.35;2.65;;;28.20;66.70;;;;;;4963181;28;20046;-78
2023/07/19 10:30:51;;;;;;;4.13;2.30;;;28.30;66.40;;;;;;4973087;28;20030;-78
2023/07/19 10:33:24;;;;;;;4.07;2.00;;;28.10;67.20;;;;;;4955597;28;20027;-78
2023/07/19 10:35:52;;;;;;;3.10;2.08;;;28.20;68.10;;;;;;4972705;28;20030;-78
2023/07/19 10:38:23;;;;;;;2.75;2.10;;;28.50;68.70;;;;;;4954038;28;20035;-78
2023/07/19 10:41:01;;;;;;;4.07;2.38;;;28.70;67.40;;;;;;4973070;28;20027;-78
2023/07/19 10:43:28;;;;;;;6.20;2.03;;;28.70;65.60;;;;;;4955521;28;20023;-78
2023/07/19 10:45:55;;;;;;;7.20;2.97;;;28.50;65.70;;;;;;4955404;28;20027;-78
2023/07/19 10:48:28;;;;;;;2.63;1.90;;;28.60;66.20;;;;;;4955252;28;20583;-78
2023/07/19 10:50:58;;;;;;;3.13;2.35;;;28.40;65.00;;;;;;4955139;28;20038;-78
2023/07/19 10:53:24;;;;;;;3.65;1.88;;;28.30;65.20;;;;;;4955057;28;20499;-78
2023/07/19 10:55:57;;;;;;;2.25;2.05;;;28.60;67.80;;;;;;4972637;28;20030;-77
2023/07/19 10:58:26;;;;;;;7.25;2.08;;;29.30;66.80;;;;;;4954937;28;20031;-78
2023/07/19 11:00:53;;;;;;;;;;;29.30;63.40;;;;;;4955454;28;20027;-78
2023/07/19 11:03:22;;;;;;;3.25;2.08;;;28.90;63.80;;;;;;4972488;28;19929;-78
2023/07/19 11:05:49;;;;;;;2.30;2.10;;;28.80;61.50;;;;;;4972266;28;20038;-78
2023/07/19 11:08:26;;;;;;;4.35;1.67;;;28.90;63.20;;;;;;4955191;28;20038;-78
2023/07/19 11:10:55;;;;;;;4.47;1.85;;;29.10;62.50;;;;;;4972357;28;20042;-78
2023/07/19 11:13:23;;;;;;;1.60;1.50;;;29.00;65.70;;;;;;4954954;28;20066;-78
2023/07/19 11:15:58;;;;;;;2.58;2.35;;;28.70;66.10;;;;;;4972045;28;20274;-78
2023/07/19 11:18:30;;;;;;;2.50;2.10;;;28.60;67.90;;;;;;4972148;28;20058;-78
2023/07/19 11:20:57;;;;;;;3.30;2.30;;;28.80;66.00;;;;;;4954039;28;20030;-78
2023/07/19 11:23:23;;;;;;;2.67;2.13;;;29.30;65.80;;;;;;4971993;28;20152;-78
2023/07/19 11:25:49;;;;;;;2.55;1.98;;;29.60;64.50;;;;;;4954672;28;20023;-78
2023/07/19 11:28:34;;;;;;;2.20;2.00;;;29.90;63.90;;;;;;4954598;28;20042;-78
2023/07/19 11:31:02;;;;;;;2.10;1.88;;;30.10;64.70;;;;;;4954577;28;20276;-79
2023/07/19 11:33:28;;;;;;;5.85;3.10;;;29.60;64.60;;;;;;4954544;28;20430;-78
2023/07/19 11:35:54;;;;;;;4.07;1.92;;;29.30;64.50;;;;;;4954232;28;20030;-78
2023/07/19 11:38:19;;;;;;;2.03;1.85;;;29.60;65.20;;;;;;4954212;28;20114;-78
2023/07/19 11:40:45;;;;;;;2.75;2.50;;;29.50;64.00;;;;;;4954298;28;20540;-78
2023/07/19 11:43:10;;;;;;;6.15;2.08;;;29.40;64.10;;;;;;4971684;28;20026;-78
2023/07/19 11:45:36;;;;;;;2.55;2.15;;;29.30;64.20;;;;;;4954401;28;20022;-77
2023/07/19 11:48:03;;;;;;;3.75;2.60;;;29.30;64.70;;;;;;4971777;28;20516;-78
2023/07/19 11:50:29;;;;;;;2.58;1.60;;;29.30;62.00;;;;;;4953349;28;20034;-77
2023/07/19 11:53:04;;;;;;;4.07;2.50;;;29.60;63.30;;;;;;4971471;28;20019;-78
2023/07/19 11:55:30;;;;;;;4.03;2.10;;;30.00;63.10;;;;;;4953984;28;20029;-78
2023/07/19 11:58:03;;;;;;;4.13;1.95;;;30.90;62.50;;;;;;4971320;28;20034;-78
2023/07/19 12:00:30;;;;;;;4.22;1.80;;;30.70;60.00;;;;;;4971423;28;20027;-78
2023/07/19 12:02:57;;;;;;;5.40;1.65;;;30.40;58.60;;;;;;4953766;28;20045;-78
2023/07/19 12:05:24;;;;;;;3.92;1.83;;;29.60;61.10;;;;;;4971183;28;20133;-78
2023/07/19 12:07:54;;;;;;;3.03;2.38;;;29.90;60.20;;;;;;4971345;28;20027;-78
2023/07/19 12:10:21;;;;;;;4.65;1.83;;;30.70;59.70;;;;;;4971090;28;20026;-78
2023/07/19 12:12:50;;;;;;;2.75;1.80;;;30.50;60.90;;;;;;4971033;28;20612;-78
2023/07/19 12:15:17;;;;;;;5.22;2.25;;;30.70;59.80;;;;;;4953403;28;20030;-78
2023/07/19 12:17:43;;;;;;;3.10;2.30;;;31.30;60.30;;;;;;4953428;28;20054;-78
2023/07/19 12:20:10;;;;;;;2.85;1.90;;;31.40;59.20;;;;;;4970583;28;20035;-78
2023/07/19 12:22:39;;;;;;;3.15;2.03;;;30.90;61.30;;;;;;4953728;28;20110;-78
2023/07/19 12:25:05;;;;;;;6.28;2.38;;;31.70;62.40;;;;;;4953697;28;20023;-78
2023/07/19 12:27:32;;;;;;;3.78;2.40;;;32.00;59.80;;;;;;4970364;28;20038;-78
2023/07/19 12:29:58;;;;;;;5.07;2.67;;;31.40;57.40;;;;;;4953510;28;20163;-78
2023/07/19 12:32:27;;;;;;;1.75;1.38;;;30.80;59.00;;;;;;4970684;28;20029;-78
2023/07/19 12:34:53;;;;;;;3.63;2.10;;;30.20;59.10;;;;;;4970329;28;20038;-78
2023/07/19 12:37:19;;;;;;;2.42;2.03;;;31.20;59.50;;;;;;4953377;28;20084;-78
2023/07/19 12:39:45;;;;;;;4.57;2.40;;;30.30;61.00;;;;;;4970821;28;20030;-78
2023/07/19 12:42:11;;;;;;;5.82;1.88;;;30.40;58.40;;;;;;4971098;28;20051;-78
2023/07/19 12:44:37;;;;;;;2.70;2.08;;;30.40;58.50;;;;;;4970606;28;20027;-78
2023/07/19 12:47:06;;;;;;;4.22;2.55;;;31.00;59.70;;;;;;4970731;28;20030;-79
2023/07/19 12:49:32;;;;;;;;;;;31.10;58.20;;;;;;4970777;28;20089;-78